Time;durP1;ratioP1;P1;durP2;ratioP2;P2;SDS_P1;SDS_P2;PMS_P1;PMS_P2;Temp;Humidity;BMP_temperature;BMP_pressure;BME280_temperature;BME280_humidity;BME280_pressure;Samples;Min_cycle;Max_cycle;Signal;HPM_P1;HPM_P2
2024/02/10 00:01:45;;;;;;;0.50;0.50;;;18.60;45.00;;;;;;8429091;28;20032;-55
2024/02/10 00:05:46;;;;;;;0.65;0.50;;;18.60;45.00;;;;;;8428978;28;20424;-55
2024/02/10 00:09:47;;;;;;;0.32;0.32;;;18.60;45.00;;;;;;8429036;28;20083;-55
2024/02/10 00:13:49;;;;;;;0.30;0.30;;;18.60;45.00;;;;;;8428906;28;20123;-55
2024/02/10 00:17:50;;;;;;;0.50;0.50;;;18.60;45.00;;;;;;8428505;28;20111;-55
2024/02/10 00:21:51;;;;;;;0.50;0.50;;;18.60;45.10;;;;;;8428575;28;20035;-55
2024/02/10 00:25:54;;;;;;;0.52;0.52;;;18.60;45.00;;;;;;8427579;28;20074;-55
2024/02/10 00:29:55;;;;;;;1.00;0.80;;;18.60;45.00;;;;;;8428552;28;20101;-55
2024/02/10 00:33:57;;;;;;;0.88;0.50;;;18.50;45.00;;;;;;8428606;28;20115;-55
2024/02/10 00:37:57;;;;;;;0.50;0.50;;;18.50;45.00;;;;;;8428216;28;20040;-55
2024/02/10 00:41:59;;;;;;;0.57;0.40;;;18.60;45.10;;;;;;8427781;28;20063;-55
2024/02/10 00:46:00;;;;;;;0.55;0.50;;;18.60;45.10;;;;;;8410123;28;20032;-54
2024/02/10 00:50:03;;;;;;;0.52;0.47;;;18.60;45.10;;;;;;8409804;28;20035;-53
2024/02/10 00:54:04;;;;;;;0.47;0.47;;;18.60;45.10;;;;;;8427559;28;20035;-54
2024/02/10 00:58:06;;;;;;;0.60;0.60;;;18.50;45.10;;;;;;8427902;28;20040;-53
2024/02/10 01:02:09;;;;;;;;;;;18.50;45.10;;;;;;8427864;28;20032;-53
2024/02/10 01:06:21;;;;;;;0.52;0.52;;;18.50;45.10;;;;;;8409016;28;19912;-52
2024/02/10 01:10:22;;;;;;;1.42;0.57;;;18.50;45.10;;;;;;8427182;28;20032;-54
2024/02/10 01:14:28;;;;;;;0.50;0.50;;;18.50;45.10;;;;;;8427010;28;20039;-54
2024/02/10 01:18:28;;;;;;;0.50;0.40;;;18.50;45.20;;;;;;8426963;28;20157;-54
2024/02/10 01:22:29;;;;;;;0.40;0.40;;;18.50;45.10;;;;;;8426899;28;20028;-54
2024/02/10 01:26:30;;;;;;;0.55;0.50;;;18.50;45.10;;;;;;8426629;28;20036;-53
2024/02/10 01:30:31;;;;;;;0.47;0.47;;;18.50;45.10;;;;;;8426728;28;20043;-54
2024/02/10 01:34:32;;;;;;;0.60;0.60;;;18.50;45.20;;;;;;8426622;28;20539;-54
2024/02/10 01:38:41;;;;;;;0.43;0.40;;;18.50;45.20;;;;;;8426482;28;20032;-54
2024/02/10 01:42:44;;;;;;;0.60;0.50;;;18.50;45.10;;;;;;8426415;28;20123;-54
2024/02/10 01:46:45;;;;;;;0.60;0.60;;;18.50;45.10;;;;;;8426368;28;20441;-54
2024/02/10 01:50:47;;;;;;;0.60;0.60;;;18.50;45.20;;;;;;8426290;28;20032;-54
2024/02/10 01:54:48;;;;;;;0.38;0.38;;;18.50;45.20;;;;;;8426558;28;20070;-53
2024/02/10 01:58:48;;;;;;;0.73;0.60;;;18.50;45.10;;;;;;8426129;28;20477;-54
2024/02/10 02:02:50;;;;;;;0.88;0.60;;;18.50;45.20;;;;;;8426034;28;20055;-54
2024/02/10 02:06:50;;;;;;;0.47;0.47;;;18.50;45.20;;;;;;8426219;28;20075;-54
2024/02/10 02:10:51;;;;;;;0.68;0.68;;;18.50;45.10;;;;;;8426004;28;20494;-54
2024/02/10 02:14:54;;;;;;;0.75;0.57;;;18.50;45.20;;;;;;8426027;28;20024;-53
2024/02/10 02:18:57;;;;;;;0.50;0.50;;;18.50;45.20;;;;;;8425911;28;20081;-53
2024/02/10 02:23:00;;;;;;;0.50;0.50;;;18.50;45.20;;;;;;8425785;28;20111;-54
2024/02/10 02:27:02;;;;;;;0.50;0.50;;;18.50;45.20;;;;;;8425748;28;20036;-54
2024/02/10 02:31:03;;;;;;;0.55;0.55;;;18.50;45.20;;;;;;8425705;28;20036;-53
2024/02/10 02:35:11;;;;;;;;;;;18.50;45.20;;;;;;8426294;28;20043;-54
2024/02/10 02:39:11;;;;;;;0.55;0.55;;;18.50;45.20;;;;;;8425851;28;20397;-54
2024/02/10 02:43:13;;;;;;;0.50;0.50;;;18.50;45.20;;;;;;8425305;28;20627;-53
2024/02/10 02:47:13;;;;;;;0.82;0.50;;;18.50;45.20;;;;;;8427293;28;20043;-54
2024/02/10 02:51:14;;;;;;;0.68;0.60;;;18.50;45.20;;;;;;8413368;28;20111;-51
2024/02/10 02:55:15;;;;;;;0.63;0.40;;;18.50;45.20;;;;;;8432013;28;20028;-53
2024/02/10 02:59:15;;;;;;;0.40;0.40;;;18.50;45.20;;;;;;8431667;28;20405;-53
2024/02/10 03:03:16;;;;;;;0.50;0.50;;;18.50;45.20;;;;;;8431341;28;20449;-54
2024/02/10 03:07:17;;;;;;;0.75;0.75;;;18.50;45.20;;;;;;8412831;28;20146;-54
2024/02/10 03:11:18;;;;;;;0.75;0.52;;;18.50;45.20;;;;;;8430952;28;20040;-52
2024/02/10 03:15:19;;;;;;;0.32;0.32;;;18.50;45.20;;;;;;8413053;28;20032;-54
2024/02/10 03:19:19;;;;;;;0.57;0.45;;;18.50;45.20;;;;;;8430721;28;20032;-53
2024/02/10 03:23:20;;;;;;;0.40;0.40;;;18.50;45.20;;;;;;8430833;28;20447;-54
2024/02/10 03:27:21;;;;;;;0.38;0.38;;;18.50;45.20;;;;;;8430342;28;20584;-54
2024/02/10 03:31:22;;;;;;;0.50;0.50;;;18.50;45.20;;;;;;8430778;28;20492;-54
2024/02/10 03:35:24;;;;;;;0.55;0.55;;;18.40;45.20;;;;;;8412334;28;20028;-54
2024/02/10 03:39:24;;;;;;;0.60;0.60;;;18.50;45.20;;;;;;8430408;28;20089;-54
2024/02/10 03:43:27;;;;;;;0.40;0.40;;;18.50;45.20;;;;;;8430125;28;20064;-54
2024/02/10 03:47:27;;;;;;;0.40;0.40;;;18.40;45.20;;;;;;8430050;28;20033;-54
2024/02/10 03:51:31;;;;;;;0.40;0.40;;;18.50;45.20;;;;;;8429874;28;20028;-54
2024/02/10 03:55:32;;;;;;;1.25;0.43;;;18.40;45.20;;;;;;8429624;28;20067;-54
2024/02/10 03:59:35;;;;;;;0.73;0.50;;;18.50;45.30;;;;;;8428516;28;20032;-54
2024/02/10 04:03:36;;;;;;;0.45;0.45;;;18.50;45.30;;;;;;8429477;28;20061;-54
2024/02/10 04:07:37;;;;;;;0.55;0.52;;;18.50;45.30;;;;;;8429240;28;20153;-54
2024/02/10 04:11:37;;;;;;;0.50;0.50;;;18.40;45.80;;;;;;8429622;28;20132;-54
2024/02/10 04:15:39;;;;;;;0.52;0.50;;;18.40;45.30;;;;;;8429106;28;20040;-54
2024/02/10 04:19:40;;;;;;;0.50;0.50;;;18.40;45.30;;;;;;8428846;28;20024;-55
2024/02/10 04:23:42;;;;;;;0.60;0.53;;;18.40;45.30;;;;;;8428929;28;20042;-54
2024/02/10 04:27:43;;;;;;;1.30;0.43;;;18.40;45.30;;;;;;8428316;28;20290;-55
2024/02/10 04:31:44;;;;;;;0.55;0.50;;;18.40;45.30;;;;;;8428606;28;20099;-55
2024/02/10 04:35:45;;;;;;;;;;;18.40;45.30;;;;;;8428804;28;20071;-55
2024/02/10 04:39:46;;;;;;;0.57;0.57;;;18.40;45.20;;;;;;8428286;28;19908;-54
2024/02/10 04:43:47;;;;;;;0.40;0.40;;;18.40;45.30;;;;;;8428473;28;20380;-54
2024/02/10 04:47:47;;;;;;;0.47;0.47;;;18.40;45.30;;;;;;8428112;28;20389;-55
2024/02/10 04:51:48;;;;;;;0.52;0.52;;;18.40;45.30;;;;;;8427860;28;20047;-55
2024/02/10 04:55:49;;;;;;;0.60;0.50;;;18.40;45.30;;;;;;8427753;28;20104;-55
2024/02/10 04:59:49;;;;;;;0.40;0.40;;;18.40;45.30;;;;;;8427570;28;20046;-56
2024/02/10 05:03:50;;;;;;;0.50;0.50;;;18.40;45.20;;;;;;8427343;28;20546;-55
2024/02/10 05:07:56;;;;;;;0.60;0.60;;;18.40;45.30;;;;;;8427284;28;20301;-55
2024/02/10 05:11:57;;;;;;;0.40;0.40;;;18.40;45.30;;;;;;8409334;28;20375;-55
2024/02/10 05:15:57;;;;;;;0.35;0.35;;;18.40;45.30;;;;;;8427208;28;20070;-55
2024/02/10 05:20:10;;;;;;;0.50;0.50;;;18.40;45.30;;;;;;8427099;28;20078;-55
2024/02/10 05:24:15;;;;;;;0.50;0.30;;;18.40;45.30;;;;;;8426847;28;20036;-54
2024/02/10 05:28:15;;;;;;;0.60;0.60;;;18.40;45.30;;;;;;8426685;28;20071;-54
2024/02/10 05:32:16;;;;;;;0.47;0.35;;;18.40;45.30;;;;;;8426904;28;20527;-54
2024/02/10 05:36:18;;;;;;;0.82;0.70;;;18.40;45.30;;;;;;8408573;28;20043;-55
2024/02/10 05:40:20;;;;;;;1.08;0.60;;;18.40;45.30;;;;;;8426281;28;20038;-55
2024/02/10 05:44:21;;;;;;;;;;;18.40;45.30;;;;;;8427090;28;20047;-55
2024/02/10 05:48:29;;;;;;;0.50;0.50;;;18.40;45.30;;;;;;8426109;28;20006;-54
2024/02/10 05:52:32;;;;;;;0.40;0.40;;;18.40;45.30;;;;;;8426080;28;20351;-56
2024/02/10 05:56:35;;;;;;;0.50;0.40;;;18.40;45.30;;;;;;8426025;28;20120;-55
2024/02/10 06:00:40;;;;;;;0.65;0.52;;;18.40;45.30;;;;;;8426205;28;20032;-55
2024/02/10 06:04:41;;;;;;;0.32;0.32;;;18.40;45.30;;;;;;8426690;28;20028;-55
2024/02/10 06:08:42;;;;;;;0.70;0.45;;;18.40;45.30;;;;;;8425735;28;20036;-54
2024/02/10 06:12:50;;;;;;;0.47;0.47;;;18.40;45.30;;;;;;8425687;28;20059;-55
2024/02/10 06:16:51;;;;;;;0.70;0.70;;;18.40;45.30;;;;;;8425795;28;20381;-54
2024/02/10 06:20:52;;;;;;;0.60;0.60;;;18.40;45.20;;;;;;8425800;28;20055;-55
2024/02/10 06:24:56;;;;;;;0.50;0.50;;;18.40;45.20;;;;;;8413976;28;20285;-54
2024/02/10 06:28:58;;;;;;;0.40;0.40;;;18.50;45.20;;;;;;8432166;28;20040;-55
2024/02/10 06:32:59;;;;;;;0.55;0.55;;;18.50;45.00;;;;;;8432022;28;20036;-55
2024/02/10 06:37:02;;;;;;;0.40;0.40;;;18.60;44.90;;;;;;8432227;28;20115;-53
2024/02/10 06:41:02;;;;;;;0.60;0.60;;;18.60;44.80;;;;;;8413833;28;20032;-54
2024/02/10 06:45:08;;;;;;;0.40;0.40;;;18.60;44.80;;;;;;8431891;28;20036;-54
2024/02/10 06:49:09;;;;;;;0.63;0.52;;;18.60;44.80;;;;;;8432038;28;20032;-54
2024/02/10 06:53:09;;;;;;;0.50;0.50;;;18.70;44.80;;;;;;8431435;28;20043;-54
2024/02/10 06:57:11;;;;;;;0.95;0.60;;;18.70;44.70;;;;;;8431257;28;20036;-54
2024/02/10 07:01:13;;;;;;;0.40;0.40;;;18.70;44.70;;;;;;8413756;28;20036;-54
2024/02/10 07:05:16;;;;;;;0.32;0.32;;;18.70;44.70;;;;;;8431294;28;20042;-53
2024/02/10 07:09:16;;;;;;;0.50;0.50;;;18.70;44.70;;;;;;8430919;28;20063;-53
2024/02/10 07:13:17;;;;;;;0.60;0.60;;;18.70;44.70;;;;;;8412869;28;20044;-53
2024/02/10 07:17:18;;;;;;;0.57;0.57;;;18.70;44.70;;;;;;8430738;28;20044;-54
2024/02/10 07:21:19;;;;;;;1.02;0.80;;;18.70;44.70;;;;;;8430617;28;20397;-53
2024/02/10 07:25:19;;;;;;;0.50;0.50;;;18.70;44.80;;;;;;8431891;28;20028;-54
2024/02/10 07:29:20;;;;;;;0.38;0.30;;;18.70;44.70;;;;;;8412106;28;20377;-54
2024/02/10 07:33:22;;;;;;;0.50;0.50;;;18.70;44.70;;;;;;8412488;28;20107;-54
2024/02/10 07:37:22;;;;;;;0.50;0.50;;;18.70;44.70;;;;;;8412002;28;20059;-54
2024/02/10 07:41:23;;;;;;;0.85;0.50;;;18.70;45.20;;;;;;8429893;28;20036;-54
2024/02/10 07:45:24;;;;;;;0.40;0.40;;;18.70;44.70;;;;;;8411904;28;20040;-54
2024/02/10 07:49:26;;;;;;;0.35;0.35;;;18.80;44.70;;;;;;8429828;28;20043;-55
2024/02/10 07:53:27;;;;;;;0.50;0.50;;;18.70;44.60;;;;;;8411838;28;20032;-56
2024/02/10 07:57:29;;;;;;;0.47;0.47;;;18.80;44.70;;;;;;8429381;28;20109;-54
2024/02/10 08:01:29;;;;;;;0.50;0.50;;;18.80;44.70;;;;;;8429519;28;20032;-55
2024/02/10 08:05:30;;;;;;;0.38;0.38;;;18.80;44.70;;;;;;8429383;28;20039;-56
2024/02/10 08:09:31;;;;;;;0.40;0.40;;;18.80;44.60;;;;;;8430006;28;20469;-55
2024/02/10 08:13:32;;;;;;;0.40;0.40;;;18.80;44.70;;;;;;8429305;28;20072;-54
2024/02/10 08:17:33;;;;;;;0.40;0.38;;;18.80;44.70;;;;;;8410744;28;20036;-56
2024/02/10 08:21:34;;;;;;;0.45;0.40;;;18.80;44.60;;;;;;8429283;28;20028;-55
2024/02/10 08:25:34;;;;;;;0.50;0.40;;;18.80;44.70;;;;;;8428610;28;20114;-55
2024/02/10 08:29:35;;;;;;;0.50;0.50;;;18.70;44.60;;;;;;8428551;28;20048;-55
2024/02/10 08:33:36;;;;;;;0.82;0.50;;;18.70;44.70;;;;;;8428431;28;20064;-56
2024/02/10 08:37:37;;;;;;;0.50;0.50;;;18.70;44.70;;;;;;8427933;28;20032;-56
2024/02/10 08:41:38;;;;;;;0.55;0.50;;;18.70;44.80;;;;;;8428144;28;20036;-55
2024/02/10 08:45:40;;;;;;;0.50;0.47;;;18.70;44.80;;;;;;8427530;28;20093;-56
2024/02/10 08:49:42;;;;;;;0.77;0.50;;;18.60;44.80;;;;;;8428496;28;20024;-54
2024/02/10 08:53:43;;;;;;;0.43;0.40;;;18.60;44.80;;;;;;8428208;28;20477;-54
2024/02/10 08:57:46;;;;;;;0.75;0.73;;;18.60;44.80;;;;;;8427707;28;20028;-56
2024/02/10 09:01:48;;;;;;;0.47;0.45;;;18.70;44.80;;;;;;8427655;28;20043;-55
2024/02/10 09:05:49;;;;;;;0.75;0.55;;;18.70;44.70;;;;;;8427390;28;20074;-55
2024/02/10 09:09:50;;;;;;;0.30;0.30;;;18.70;44.70;;;;;;8427390;28;20039;-55
2024/02/10 09:13:51;;;;;;;0.60;0.50;;;18.70;45.30;;;;;;8426036;28;20101;-56
2024/02/10 09:17:52;;;;;;;0.40;0.40;;;18.80;44.70;;;;;;8425801;28;20646;-56
2024/02/10 09:21:57;;;;;;;0.50;0.50;;;18.80;44.70;;;;;;8426272;28;20263;-55
2024/02/10 09:25:58;;;;;;;0.50;0.40;;;18.70;44.60;;;;;;8408198;28;20036;-56
2024/02/10 09:30:00;;;;;;;0.43;0.40;;;18.80;44.70;;;;;;8425462;28;20036;-55
2024/02/10 09:34:01;;;;;;;0.40;0.40;;;18.80;44.60;;;;;;8425471;28;20028;-55
2024/02/10 09:38:03;;;;;;;;;;;18.80;44.70;;;;;;8425817;28;20068;-55
2024/02/10 09:42:09;;;;;;;0.40;0.40;;;18.80;44.70;;;;;;8424966;28;20262;-55
2024/02/10 09:46:10;;;;;;;0.30;0.30;;;18.80;44.70;;;;;;8425154;28;20115;-55
2024/02/10 09:50:15;;;;;;;0.40;0.40;;;18.80;44.70;;;;;;8425237;28;20040;-55
2024/02/10 09:54:16;;;;;;;0.40;0.40;;;18.80;44.70;;;;;;8406835;28;20032;-55
2024/02/10 09:58:17;;;;;;;0.52;0.40;;;18.80;44.60;;;;;;8423920;28;20039;-55
2024/02/10 10:02:19;;;;;;;0.40;0.40;;;18.80;44.70;;;;;;8425308;28;20036;-54
2024/02/10 10:06:20;;;;;;;0.45;0.40;;;18.80;44.70;;;;;;8424723;28;20115;-53
2024/02/10 10:10:22;;;;;;;1.83;0.40;;;18.80;44.70;;;;;;8424872;28;20024;-53
2024/02/10 10:14:24;;;;;;;1.20;0.70;;;18.70;44.70;;;;;;8378785;28;1337652;-54
2024/02/10 10:18:24;;;;;;;0.60;0.60;;;18.70;44.80;;;;;;8425847;28;20040;-54
2024/02/10 10:22:27;;;;;;;1.73;0.70;;;18.70;45.30;;;;;;8426032;28;20127;-54
2024/02/10 10:26:28;;;;;;;1.00;0.77;;;18.70;44.90;;;;;;8425697;28;21891;-53
2024/02/10 10:30:31;;;;;;;1.05;0.73;;;18.80;44.80;;;;;;8426165;28;20415;-52
2024/02/10 10:34:33;;;;;;;0.80;0.70;;;18.80;44.80;;;;;;8425843;28;20062;-54
2024/02/10 10:38:35;;;;;;;0.70;0.70;;;18.70;44.80;;;;;;8425690;28;20032;-53
2024/02/10 10:42:38;;;;;;;0.40;0.40;;;18.80;44.80;;;;;;8425592;28;20067;-53
2024/02/10 10:46:40;;;;;;;0.88;0.52;;;18.80;44.80;;;;;;8425339;28;20058;-54
2024/02/10 10:50:40;;;;;;;;;;;18.80;44.80;;;;;;8425933;28;20070;-54
2024/02/10 10:54:42;;;;;;;0.50;0.50;;;18.80;44.80;;;;;;8425326;28;19908;-53
2024/02/10 10:58:47;;;;;;;0.50;0.50;;;18.80;44.80;;;;;;8407476;28;20032;-54
2024/02/10 11:02:52;;;;;;;0.47;0.45;;;18.80;44.80;;;;;;8425331;28;20020;-54
2024/02/10 11:06:56;;;;;;;0.55;0.55;;;18.80;44.80;;;;;;8424870;28;20093;-54
2024/02/10 11:10:59;;;;;;;0.68;0.45;;;18.80;44.80;;;;;;8430717;28;20397;-53
2024/02/10 11:15:00;;;;;;;0.40;0.40;;;18.80;44.80;;;;;;8431238;28;20040;-53
2024/02/10 11:19:01;;;;;;;0.43;0.43;;;18.80;44.80;;;;;;8431098;28;20117;-54
2024/02/10 11:23:13;;;;;;;0.52;0.50;;;18.70;44.80;;;;;;8430899;28;20030;-54
2024/02/10 11:27:14;;;;;;;0.50;0.50;;;18.70;44.80;;;;;;8431041;28;20415;-54
2024/02/10 11:31:17;;;;;;;0.45;0.45;;;18.70;44.90;;;;;;8431117;28;20040;-54
2024/02/10 11:35:18;;;;;;;0.60;0.50;;;18.70;44.90;;;;;;8430470;28;20022;-54
2024/02/10 11:39:23;;;;;;;0.75;0.55;;;18.70;45.00;;;;;;8430622;28;20051;-54
2024/02/10 11:43:24;;;;;;;0.75;0.50;;;18.70;45.00;;;;;;8430042;28;20478;-54
2024/02/10 11:47:27;;;;;;;0.50;0.50;;;18.70;45.00;;;;;;8411868;28;20390;-53
2024/02/10 11:51:28;;;;;;;0.52;0.52;;;18.70;45.00;;;;;;8429607;28;20286;-54
2024/02/10 11:55:29;;;;;;;0.40;0.38;;;18.70;45.00;;;;;;8429696;28;20028;-54
2024/02/10 11:59:32;;;;;;;0.50;0.50;;;18.70;44.90;;;;;;8429578;28;20042;-54
2024/02/10 12:03:33;;;;;;;0.32;0.32;;;18.70;44.90;;;;;;8429363;28;20032;-54
2024/02/10 12:07:37;;;;;;;0.30;0.30;;;18.70;44.90;;;;;;8410975;28;20036;-54
2024/02/10 12:11:38;;;;;;;0.40;0.40;;;18.70;44.80;;;;;;8410592;28;20044;-54
2024/02/10 12:15:38;;;;;;;0.38;0.38;;;18.70;44.80;;;;;;8410650;28;20516;-54
2024/02/10 12:19:40;;;;;;;0.43;0.40;;;18.80;44.80;;;;;;8427950;28;20409;-52
2024/02/10 12:23:47;;;;;;;1.13;0.50;;;18.80;44.80;;;;;;8410855;28;20193;-54
2024/02/10 12:27:50;;;;;;;0.43;0.43;;;18.80;44.80;;;;;;8428413;28;20035;-55
2024/02/10 12:31:51;;;;;;;0.70;0.50;;;18.80;44.80;;;;;;8428665;28;20067;-55
2024/02/10 12:35:54;;;;;;;0.60;0.60;;;18.80;44.70;;;;;;8428197;28;20028;-55
2024/02/10 12:39:55;;;;;;;0.45;0.40;;;18.80;44.70;;;;;;8428360;28;20393;-54
2024/02/10 12:43:58;;;;;;;0.95;0.65;;;18.80;44.70;;;;;;8428270;28;20093;-55
2024/02/10 12:47:59;;;;;;;0.50;0.50;;;18.80;44.80;;;;;;8427995;28;20423;-55
2024/02/10 12:52:00;;;;;;;0.50;0.50;;;18.80;44.80;;;;;;8428015;28;20032;-55
2024/02/10 12:56:04;;;;;;;0.40;0.40;;;18.80;44.70;;;;;;8427617;28;20039;-55
2024/02/10 13:00:24;;;;;;;0.50;0.50;;;18.80;44.70;;;;;;8409536;28;20375;-54
2024/02/10 13:04:25;;;;;;;0.68;0.60;;;18.80;44.80;;;;;;8409556;28;20063;-54
2024/02/10 13:08:26;;;;;;;0.50;0.50;;;18.80;44.70;;;;;;8427418;28;20047;-55
2024/02/10 13:12:28;;;;;;;0.60;0.60;;;18.80;44.70;;;;;;8427011;28;20044;-55
2024/02/10 13:16:29;;;;;;;0.40;0.40;;;18.80;44.80;;;;;;8427133;28;20121;-55
2024/02/10 13:20:30;;;;;;;0.68;0.50;;;18.80;44.80;;;;;;8409049;28;20032;-54
2024/02/10 13:24:31;;;;;;;0.45;0.45;;;18.80;44.80;;;;;;8427165;28;20040;-55
2024/02/10 13:28:32;;;;;;;0.45;0.45;;;18.80;44.80;;;;;;8408557;28;20036;-55
2024/02/10 13:32:32;;;;;;;0.50;0.50;;;18.80;44.80;;;;;;8426462;28;20032;-55
2024/02/10 14:06:19;;;;;;;0.43;0.40;;;18.70;44.90;;;;;;8425803;28;20058;-55
2024/02/10 14:10:23;;;;;;;0.68;0.60;;;18.70;44.90;;;;;;8426358;28;20482;-54
2024/02/10 14:14:24;;;;;;;0.50;0.50;;;18.70;45.00;;;;;;8425921;28;20048;-54
2024/02/10 14:18:25;;;;;;;0.47;0.47;;;18.70;45.00;;;;;;8426021;28;20060;-55
2024/02/10 14:22:26;;;;;;;0.40;0.40;;;18.70;44.90;;;;;;8425894;28;20028;-55
2024/02/10 14:27:14;;;;;;;0.63;0.50;;;18.70;45.00;;;;;;8425589;28;20035;-55
2024/02/10 14:30:51;;;;;;;0.38;0.38;;;18.70;45.00;;;;;;8414566;28;20032;-54
2024/02/10 14:35:08;;;;;;;0.63;0.60;;;18.70;45.00;;;;;;8425610;28;20040;-55
2024/02/10 14:39:13;;;;;;;0.50;0.45;;;18.70;44.90;;;;;;8425502;28;20530;-55
2024/02/10 14:43:15;;;;;;;0.40;0.40;;;18.70;45.00;;;;;;8427584;28;20020;-54
2024/02/10 14:47:18;;;;;;;0.77;0.50;;;18.80;44.90;;;;;;8413999;28;20451;-55
2024/02/10 14:51:19;;;;;;;0.55;0.50;;;18.80;45.00;;;;;;8431736;28;20017;-55
2024/02/10 14:55:19;;;;;;;0.60;0.60;;;18.80;44.90;;;;;;8431867;28;20020;-54
2024/02/10 14:59:20;;;;;;;0.40;0.40;;;18.80;44.90;;;;;;8431713;28;20028;-55
2024/02/10 15:03:21;;;;;;;0.47;0.47;;;18.80;44.90;;;;;;8413116;28;20071;-55
2024/02/10 15:07:24;;;;;;;0.98;0.50;;;18.80;44.90;;;;;;8431195;28;20031;-56
2024/02/10 15:11:24;;;;;;;0.60;0.50;;;18.80;44.90;;;;;;8430904;28;20117;-55
2024/02/10 15:15:27;;;;;;;0.45;0.45;;;18.80;44.90;;;;;;8431337;28;20552;-55
2024/02/10 15:19:28;;;;;;;0.57;0.40;;;18.70;44.90;;;;;;8431010;28;20102;-56
2024/02/10 15:23:28;;;;;;;0.50;0.50;;;18.70;44.90;;;;;;8430745;28;20043;-56
2024/02/10 15:27:29;;;;;;;0.50;0.50;;;18.70;44.90;;;;;;8430826;28;20440;-56
2024/02/10 15:31:34;;;;;;;0.40;0.40;;;18.70;44.90;;;;;;8430572;28;20028;-55
2024/02/10 15:35:35;;;;;;;0.40;0.40;;;18.70;44.90;;;;;;8430777;28;20028;-54
2024/02/10 15:39:36;;;;;;;0.50;0.50;;;18.70;44.90;;;;;;8430380;28;20028;-55
2024/02/10 15:43:40;;;;;;;0.50;0.50;;;18.70;44.90;;;;;;8430221;28;20086;-56
2024/02/10 15:47:42;;;;;;;0.50;0.50;;;18.70;44.90;;;;;;8430404;28;20044;-55
2024/02/10 15:51:43;;;;;;;0.60;0.60;;;18.70;44.90;;;;;;8429759;28;20107;-54
2024/02/10 15:55:44;;;;;;;0.63;0.40;;;18.80;45.00;;;;;;8411639;28;20024;-55
2024/02/10 15:59:45;;;;;;;0.60;0.50;;;18.70;44.90;;;;;;8411468;28;20044;-55
2024/02/10 16:03:46;;;;;;;0.30;0.30;;;18.80;44.90;;;;;;8429567;28;20040;-55
2024/02/10 16:07:51;;;;;;;0.65;0.50;;;18.70;44.90;;;;;;8429447;28;20047;-55
2024/02/10 16:11:52;;;;;;;0.40;0.30;;;18.70;44.90;;;;;;8411033;28;20047;-55
2024/02/10 16:15:53;;;;;;;0.40;0.40;;;18.70;44.90;;;;;;8425953;28;20071;-55
2024/02/10 16:19:54;;;;;;;0.50;0.50;;;18.70;44.90;;;;;;8426972;28;20278;-53
2024/02/10 16:24:02;;;;;;;0.60;0.50;;;18.70;45.00;;;;;;8414321;28;20119;-54
2024/02/10 16:28:02;;;;;;;0.55;0.55;;;18.80;45.30;;;;;;8405597;28;20032;-54
2024/02/10 16:32:03;;;;;;;3.15;1.00;;;18.80;45.10;;;;;;8426359;28;20021;-53
2024/02/10 16:36:05;;;;;;;3.20;0.70;;;18.80;46.30;;;;;;8412162;28;20032;-51
2024/02/10 16:40:10;;;;;;;;;;;18.90;46.90;;;;;;8395679;28;20040;-52
2024/02/10 16:44:11;;;;;;;0.60;0.60;;;18.90;47.20;;;;;;8398494;28;19993;-54
2024/02/10 16:48:14;;;;;;;1.63;0.70;;;18.90;47.80;;;;;;8414206;28;20032;-57
2024/02/10 16:52:16;;;;;;;2.15;0.70;;;18.90;48.30;;;;;;8410429;28;20036;-51
2024/02/10 16:56:17;;;;;;;4.43;0.80;;;19.00;48.60;;;;;;8404147;28;20538;-54
2024/02/10 17:00:26;;;;;;;0.70;0.70;;;19.00;48.80;;;;;;8416088;28;20366;-49
2024/02/10 17:04:27;;;;;;;9.07;0.75;;;18.90;46.70;;;;;;8409935;28;20035;-49
2024/02/10 17:08:28;;;;;;;7.88;0.70;;;18.90;47.60;;;;;;8413221;28;20033;-48
2024/02/10 17:12:29;;;;;;;2.53;1.50;;;19.00;47.30;;;;;;8415445;28;20043;-47
2024/02/10 17:16:30;;;;;;;7.28;2.40;;;18.90;47.50;;;;;;8421145;28;20029;-55
2024/02/10 17:20:31;;;;;;;5.53;2.65;;;18.90;47.90;;;;;;8393537;28;20032;-49
2024/02/10 17:24:31;;;;;;;15.27;2.85;;;18.90;48.10;;;;;;8393107;28;20496;-54
2024/02/10 17:28:33;;;;;;;10.43;4.78;;;18.80;48.10;;;;;;8411793;28;20029;-53
2024/02/10 17:32:33;;;;;;;;;;;18.80;48.60;;;;;;8393803;28;20063;-54
2024/02/10 17:36:34;;;;;;;15.37;8.13;;;18.80;48.30;;;;;;8416037;28;19908;-50
2024/02/10 17:40:35;;;;;;;13.63;8.60;;;18.90;48.20;;;;;;8403422;28;20032;-53
2024/02/10 17:44:39;;;;;;;13.30;7.65;;;18.90;47.90;;;;;;8422500;28;20102;-52
2024/02/10 17:48:39;;;;;;;11.48;6.82;;;18.90;47.90;;;;;;8398419;28;20542;-47
2024/02/10 17:52:40;;;;;;;15.10;7.15;;;18.90;47.80;;;;;;8415992;28;20214;-53
2024/02/10 17:56:41;;;;;;;16.08;7.07;;;18.90;47.80;;;;;;8411436;28;20043;-51
2024/02/10 18:00:51;;;;;;;12.65;7.10;;;19.00;47.70;;;;;;8426385;28;20031;-50
2024/02/10 18:04:52;;;;;;;10.30;5.65;;;19.00;47.70;;;;;;8428232;28;20103;-54
2024/02/10 18:08:53;;;;;;;17.85;6.72;;;18.90;47.60;;;;;;8418937;28;20048;-57
2024/02/10 18:12:54;;;;;;;9.50;5.93;;;19.00;47.90;;;;;;8427974;28;20055;-58
2024/02/10 18:16:58;;;;;;;9.57;5.90;;;19.10;48.50;;;;;;8422625;28;20051;-53
2024/02/10 18:21:00;;;;;;;12.75;5.68;;;19.00;47.70;;;;;;8422332;28;20036;-49
2024/02/10 18:25:03;;;;;;;43.80;7.80;;;19.10;48.20;;;;;;8426009;28;20035;-50
2024/02/10 18:29:03;;;;;;;7.82;5.25;;;19.10;48.30;;;;;;8429390;28;20115;-54
2024/02/10 18:33:04;;;;;;;9.98;5.57;;;19.20;47.80;;;;;;8418120;28;20070;-50
2024/02/10 18:37:05;;;;;;;13.38;5.32;;;19.20;48.20;;;;;;8425832;28;20097;-53
2024/02/10 18:41:05;;;;;;;8.20;5.32;;;19.20;48.20;;;;;;8422997;28;20036;-52
2024/02/10 18:45:07;;;;;;;9.82;4.97;;;19.20;48.20;;;;;;8412152;28;20485;-52
2024/02/10 18:49:09;;;;;;;10.23;5.15;;;19.30;48.10;;;;;;8420213;28;20028;-49
2024/02/10 18:53:10;;;;;;;7.30;5.00;;;19.30;48.10;;;;;;8424602;28;20055;-48
2024/02/10 18:57:10;;;;;;;8.40;4.75;;;19.30;48.00;;;;;;8430396;28;20028;-50
2024/02/10 19:01:12;;;;;;;9.68;4.47;;;19.30;47.90;;;;;;8433371;28;20032;-50
2024/02/10 19:05:13;;;;;;;7.03;4.40;;;19.30;47.60;;;;;;8434064;28;20554;-50
2024/02/10 19:09:13;;;;;;;9.13;4.80;;;19.30;47.40;;;;;;8424932;28;20421;-55
2024/02/10 19:13:14;;;;;;;13.50;4.57;;;19.30;47.80;;;;;;8417826;28;20047;-52
2024/02/10 19:17:17;;;;;;;7.53;5.07;;;19.20;47.50;;;;;;8420979;28;20049;-46
2024/02/10 19:21:19;;;;;;;8.82;4.70;;;19.30;47.90;;;;;;8423138;28;20032;-53
2024/02/10 19:25:22;;;;;;;11.18;4.55;;;19.30;47.80;;;;;;8424668;28;20042;-46
2024/02/10 19:29:26;;;;;;;11.70;5.45;;;19.30;47.60;;;;;;8433487;28;20162;-47
2024/02/10 19:33:27;;;;;;;13.18;5.47;;;19.30;47.60;;;;;;8404130;28;20508;-47
2024/02/10 19:37:28;;;;;;;12.90;5.72;;;19.20;48.40;;;;;;8429839;28;20447;-48
2024/02/10 19:41:29;;;;;;;11.52;6.40;;;19.30;48.30;;;;;;8407839;28;20032;-55
2024/02/10 19:45:31;;;;;;;16.40;6.25;;;19.30;48.60;;;;;;8403828;28;20029;-49
2024/02/10 19:49:32;;;;;;;16.70;6.82;;;19.30;48.70;;;;;;8417305;28;20032;-47
2024/02/10 19:53:33;;;;;;;17.67;7.22;;;19.30;48.60;;;;;;8410748;28;20610;-51
2024/02/10 19:57:34;;;;;;;14.40;6.20;;;19.30;48.80;;;;;;8407054;28;20700;-57
2024/02/10 20:01:34;;;;;;;19.50;6.97;;;19.40;49.00;;;;;;8420563;28;20044;-52
2024/02/10 20:05:36;;;;;;;15.10;6.35;;;19.40;49.00;;;;;;8411457;28;20082;-54
2024/02/10 20:09:37;;;;;;;12.32;6.05;;;19.40;49.00;;;;;;8407723;28;20043;-55
2024/02/10 20:13:38;;;;;;;14.48;6.60;;;19.40;48.80;;;;;;8422773;28;20051;-53
2024/02/10 20:17:40;;;;;;;12.90;6.55;;;19.40;48.20;;;;;;8427491;28;20036;-52
2024/02/10 20:21:42;;;;;;;12.07;6.28;;;19.40;47.90;;;;;;8431765;28;20085;-51
2024/02/10 20:25:43;;;;;;;;;;;19.30;48.00;;;;;;8431869;28;20081;-47
2024/02/10 20:29:45;;;;;;;17.33;7.03;;;19.40;48.10;;;;;;8426888;28;19920;-50
2024/02/10 20:33:54;;;;;;;16.92;6.47;;;19.40;48.30;;;;;;8426596;28;20073;-52
2024/02/10 20:37:54;;;;;;;16.15;6.80;;;19.40;49.30;;;;;;8418336;28;20047;-52
2024/02/10 20:41:58;;;;;;;21.92;8.10;;;19.50;48.70;;;;;;8403184;28;20020;-56
2024/02/10 20:45:59;;;;;;;21.35;7.70;;;19.40;49.00;;;;;;8431588;28;20051;-57
2024/02/10 20:50:30;;;;;;;16.80;7.30;;;19.50;49.40;;;;;;8434311;28;20511;-51
2024/02/10 20:54:32;;;;;;;20.05;8.15;;;19.50;49.40;;;;;;8438839;28;20532;-54
2024/02/10 20:58:33;;;;;;;16.80;7.20;;;19.50;49.40;;;;;;8428193;28;20028;-55
2024/02/10 21:02:33;;;;;;;19.67;6.93;;;19.50;49.40;;;;;;8435789;28;21506;-57
2024/02/10 21:06:36;;;;;;;16.70;7.70;;;19.50;49.50;;;;;;8426398;28;20107;-60
2024/02/10 21:10:37;;;;;;;17.73;7.60;;;19.50;49.60;;;;;;8433477;28;20159;-55
2024/02/10 21:14:41;;;;;;;20.52;7.05;;;19.50;49.50;;;;;;8432280;28;20040;-56
2024/02/10 21:18:42;;;;;;;15.20;7.00;;;19.40;49.60;;;;;;8431903;28;20032;-53
2024/02/10 21:22:47;;;;;;;20.98;6.93;;;19.50;49.80;;;;;;8434507;28;20077;-47
2024/02/10 21:26:48;;;;;;;18.10;7.38;;;19.40;49.80;;;;;;8434576;28;20101;-50
2024/02/10 21:30:49;;;;;;;15.48;7.03;;;19.50;49.30;;;;;;8433068;28;20098;-49